createdAt,value
2019-03-03T00:02:07.503Z,93.30
2019-03-03T00:04:36.191Z,93.85
2019-03-03T00:07:04.913Z,93.58
2019-03-03T00:09:52.864Z,93.69
2019-03-03T00:12:21.516Z,93.74
2019-03-03T00:17:37.778Z,93.92
2019-03-03T00:20:46.219Z,93.95
2019-03-03T00:23:14.926Z,93.86
2019-03-03T00:25:43.733Z,93.64
2019-03-03T00:28:12.389Z,93.30
2019-03-03T00:33:28.721Z,92.87
2019-03-03T00:39:09.623Z,93.26
2019-03-03T00:47:20.080Z,93.13
2019-03-03T00:52:47.625Z,93.29
2019-03-03T00:55:35.413Z,93.02
2019-03-03T01:00:58.649Z,92.66
2019-03-03T01:03:46.528Z,92.51
2019-03-03T01:09:48.113Z,92.79
2019-03-03T01:12:35.883Z,92.81
2019-03-03T01:15:44.337Z,92.15
2019-03-03T01:18:32.100Z,92.04
2019-03-03T01:23:55.595Z,92.76
2019-03-03T01:26:24.310Z,92.92
2019-03-03T01:28:52.959Z,93.14
2019-03-03T01:31:40.766Z,93.21
2019-03-03T01:34:09.562Z,93.12
2019-03-03T01:36:38.203Z,93.07
2019-03-03T01:39:06.851Z,93.25
2019-03-03T01:41:35.630Z,93.28
2019-03-03T01:49:45.771Z,93.44
2019-03-03T01:52:14.531Z,93.34
2019-03-03T01:54:43.179Z,93.32
2019-03-03T01:57:31.010Z,93.16
2019-03-03T01:59:59.715Z,93.05
2019-03-03T02:02:28.471Z,92.29
2019-03-03T02:04:57.254Z,91.91
2019-03-03T02:07:45.277Z,91.09
2019-03-03T02:18:37.333Z,89.34
2019-03-03T02:21:45.727Z,89.00
2019-03-03T02:24:14.590Z,88.93
2019-03-03T02:26:43.237Z,89.06
2019-03-03T02:29:12.069Z,88.58
2019-03-03T02:31:59.940Z,88.70
2019-03-03T02:34:28.802Z,87.93
2019-03-03T02:36:57.457Z,87.91
2019-03-03T02:39:45.309Z,87.73
2019-03-03T02:42:33.217Z,87.92
2019-03-03T02:45:21.040Z,88.43
2019-03-03T02:47:49.760Z,88.93
2019-03-03T02:50:18.397Z,88.86
2019-03-03T02:52:47.231Z,88.97
2019-03-03T02:55:55.760Z,89.11
2019-03-03T02:58:24.491Z,89.09
2019-03-03T03:06:56.012Z,89.83
2019-03-03T03:12:33.045Z,90.04
2019-03-03T03:20:49.768Z,90.08
2019-03-03T03:23:37.519Z,89.51
2019-03-03T03:26:44.537Z,89.58
2019-03-03T03:29:32.429Z,89.80
2019-03-03T03:37:44.992Z,89.95
2019-03-03T03:40:32.768Z,89.06
2019-03-03T03:43:20.711Z,89.11
2019-03-03T03:51:20.082Z,89.28
2019-03-03T03:57:08.126Z,89.30
2019-03-03T03:59:56.085Z,88.67
2019-03-03T04:02:43.910Z,87.88
2019-03-03T04:10:43.106Z,87.33
2019-03-03T04:13:30.884Z,88.00
2019-03-03T04:21:30.162Z,87.64
2019-03-03T04:24:37.254Z,88.01
2019-03-03T04:27:25.021Z,87.52
2019-03-03T04:30:12.839Z,87.27
2019-03-03T04:38:25.221Z,87.16
2019-03-03T04:46:41.695Z,86.25
2019-03-03T04:49:29.582Z,85.86
2019-03-03T04:57:47.643Z,85.18
2019-03-03T05:00:35.425Z,85.75
2019-03-03T05:03:23.250Z,86.23
2019-03-03T05:06:10.972Z,85.50
2019-03-03T05:12:32.420Z,84.86
2019-03-03T05:22:48.196Z,83.20
2019-03-03T05:25:16.994Z,82.80
2019-03-03T05:27:45.741Z,82.53
2019-03-03T05:30:54.176Z,82.19
2019-03-03T05:33:41.973Z,82.30
2019-03-03T05:36:10.669Z,81.74
2019-03-03T05:38:39.469Z,81.10
2019-03-03T05:41:08.062Z,80.95
2019-03-03T05:43:36.779Z,81.39
2019-03-03T05:46:05.429Z,81.64
2019-03-03T05:48:54.170Z,81.52
2019-03-03T05:51:22.923Z,81.74
2019-03-03T05:53:51.521Z,81.42
2019-03-03T05:56:20.249Z,81.03
2019-03-03T05:58:48.939Z,81.24
2019-03-03T06:01:17.640Z,81.19
2019-03-03T06:04:05.514Z,81.36
2019-03-03T06:06:34.139Z,81.57
2019-03-03T06:11:38.191Z,81.11
2019-03-03T06:14:06.886Z,80.74
2019-03-03T06:16:35.512Z,80.81
2019-03-03T06:19:23.745Z,80.50
2019-03-03T06:21:52.641Z,80.62
2019-03-03T06:24:21.326Z,81.20
2019-03-03T06:26:49.977Z,81.38
2019-03-03T06:29:37.795Z,81.12
2019-03-03T06:32:06.416Z,81.06
2019-03-03T06:34:35.183Z,80.86
2019-03-03T06:37:03.868Z,80.83
2019-03-03T06:39:32.543Z,80.77
2019-03-03T06:42:01.246Z,80.01
2019-03-03T06:44:29.886Z,80.51
2019-03-03T06:46:58.636Z,80.46
2019-03-03T06:49:46.351Z,79.21
2019-03-03T06:52:15.027Z,79.52
2019-03-03T06:54:43.642Z,79.29
2019-03-03T06:57:12.346Z,79.08
2019-03-03T06:59:40.953Z,79.78
2019-03-03T07:02:09.584Z,80.21
2019-03-03T07:04:38.277Z,79.79
2019-03-03T07:07:06.931Z,79.41
2019-03-03T07:09:35.677Z,78.53
2019-03-03T07:12:04.317Z,79.27
2019-03-03T07:14:32.933Z,79.48
2019-03-03T07:17:01.549Z,79.24
2019-03-03T07:19:30.304Z,79.09
2019-03-03T07:21:59.006Z,79.28
2019-03-03T07:24:27.716Z,78.31
2019-03-03T07:26:56.327Z,79.16
2019-03-03T07:29:24.972Z,78.93
2019-03-03T07:31:53.646Z,78.97
2019-03-03T07:34:41.515Z,78.48
2019-03-03T07:37:29.399Z,78.06
2019-03-03T07:39:58.093Z,78.07
2019-03-03T07:42:26.722Z,77.63
2019-03-03T07:44:55.389Z,77.65
2019-03-03T07:47:24.085Z,77.84
2019-03-03T07:49:52.776Z,76.89
2019-03-03T07:52:21.359Z,77.42
2019-03-03T07:54:50.099Z,76.50
2019-03-03T07:57:18.809Z,76.99
2019-03-03T07:59:47.571Z,76.80
2019-03-03T08:02:35.490Z,76.28
2019-03-03T08:07:58.941Z,75.66
2019-03-03T08:10:27.720Z,74.24
2019-03-03T08:12:56.445Z,73.28
2019-03-03T08:15:25.127Z,71.34
2019-03-03T08:17:53.744Z,71.86
2019-03-03T08:20:22.648Z,73.42
2019-03-03T08:22:51.523Z,73.34
2019-03-03T08:25:20.228Z,73.22
2019-03-03T08:28:08.287Z,73.52
2019-03-03T08:30:36.977Z,74.04
2019-03-03T08:33:25.153Z,75.80
2019-03-03T08:36:14.981Z,75.77
2019-03-03T08:39:03.215Z,74.82
2019-03-03T08:49:44.544Z,76.23
2019-03-03T08:52:32.312Z,75.53
2019-03-03T08:57:55.627Z,74.20
2019-03-03T09:03:32.662Z,73.05
2019-03-03T09:06:20.458Z,72.36
2019-03-03T09:09:08.280Z,72.73
2019-03-03T09:14:45.343Z,72.74
2019-03-03T09:17:33.129Z,73.10
2019-03-03T09:23:00.693Z,73.06
2019-03-03T09:25:48.652Z,72.40
2019-03-03T09:28:36.483Z,73.82
2019-03-03T09:31:45.126Z,73.69
2019-03-03T09:34:32.966Z,73.40
2019-03-03T09:37:20.975Z,72.91
2019-03-03T09:40:09.702Z,73.52
2019-03-03T09:46:06.434Z,73.15
2019-03-03T09:49:13.604Z,73.07
2019-03-03T09:52:01.430Z,73.24
2019-03-03T09:54:50.467Z,73.42
2019-03-03T10:00:48.210Z,74.10
2019-03-03T10:06:25.460Z,73.45
2019-03-03T10:09:13.187Z,72.72
2019-03-03T10:12:20.539Z,72.40
2019-03-03T10:15:29.092Z,72.45
2019-03-03T10:18:16.908Z,72.87
2019-03-03T10:21:04.647Z,72.81
2019-03-03T10:23:52.468Z,72.64
2019-03-03T10:26:40.391Z,72.50
2019-03-03T10:29:48.860Z,71.77
2019-03-03T10:32:36.624Z,71.75
2019-03-03T10:35:45.138Z,72.50
2019-03-03T10:38:36.295Z,72.48
2019-03-03T10:54:49.138Z,69.54
2019-03-03T11:00:45.176Z,68.76
2019-03-03T11:03:33.021Z,68.72
2019-03-03T11:17:15.458Z,67.30
2019-03-03T11:20:03.313Z,65.82
2019-03-03T11:22:51.102Z,64.57
2019-03-03T11:25:38.909Z,65.98
2019-03-03T11:28:26.792Z,65.01
2019-03-03T11:31:14.613Z,64.69
2019-03-03T11:34:02.374Z,64.94
2019-03-03T11:40:00.128Z,66.45
2019-03-03T11:42:48.084Z,66.96
2019-03-03T11:45:35.977Z,67.30
2019-03-03T11:48:23.996Z,66.72
2019-03-03T11:51:11.764Z,65.60
2019-03-03T11:53:59.577Z,65.35
2019-03-03T11:56:47.406Z,65.16
2019-03-03T11:59:35.335Z,65.33
2019-03-03T12:05:51.949Z,64.91
2019-03-03T12:08:39.757Z,64.78
2019-03-03T12:14:07.250Z,61.48
2019-03-03T12:16:55.335Z,62.84
2019-03-03T12:19:43.358Z,60.43
2019-03-03T12:25:21.803Z,56.88
2019-03-03T12:28:10.150Z,56.46
2019-03-03T12:30:57.930Z,58.31
2019-03-03T12:33:45.882Z,56.78
2019-03-03T12:36:33.640Z,57.26
2019-03-03T12:47:40.686Z,60.05
2019-03-03T12:50:49.090Z,59.07
2019-03-03T12:56:12.211Z,60.39
2019-03-03T12:59:00.013Z,59.84
2019-03-03T13:04:37.951Z,60.03
2019-03-03T13:10:15.115Z,60.74
2019-03-03T13:13:02.931Z,60.54
2019-03-03T13:16:10.059Z,61.85
2019-03-03T13:19:18.000Z,59.69
2019-03-03T13:22:06.089Z,57.95
2019-03-03T13:24:55.560Z,57.71
2019-03-03T13:30:38.084Z,55.87
2019-03-03T13:33:45.235Z,53.47
2019-03-03T13:36:33.005Z,55.18
2019-03-03T13:39:20.743Z,55.49
2019-03-03T13:42:08.589Z,57.54
2019-03-03T13:44:37.451Z,57.66
2019-03-03T13:47:06.314Z,58.03
2019-03-03T13:49:35.033Z,59.52
2019-03-03T13:52:03.905Z,59.97
2019-03-03T13:54:52.031Z,59.46
2019-03-03T13:57:20.721Z,59.45
2019-03-03T13:59:49.412Z,59.61
2019-03-03T14:02:18.102Z,60.36
2019-03-03T14:04:47.069Z,59.86
2019-03-03T14:07:15.735Z,60.86
2019-03-03T14:09:44.488Z,61.64
2019-03-03T14:12:13.260Z,60.39
2019-03-03T14:14:41.975Z,60.13
2019-03-03T14:17:50.414Z,60.55
2019-03-03T14:20:39.867Z,61.36
2019-03-03T14:23:08.727Z,62.50
2019-03-03T14:25:37.429Z,61.77
2019-03-03T14:28:06.190Z,62.74
2019-03-03T14:30:36.680Z,62.04
2019-03-03T14:33:05.427Z,61.77
2019-03-03T14:35:53.298Z,62.00
2019-03-03T14:38:41.252Z,62.56
2019-03-03T14:41:10.134Z,61.31
2019-03-03T14:43:38.842Z,61.22
2019-03-03T14:46:07.713Z,60.43
2019-03-03T14:48:36.509Z,61.27
2019-03-03T14:51:05.369Z,62.35
2019-03-03T14:53:34.127Z,62.26
2019-03-03T14:56:02.942Z,60.90
2019-03-03T14:58:31.492Z,60.80
2019-03-03T15:07:15.509Z,60.18
2019-03-03T15:09:44.287Z,60.00
2019-03-03T15:12:13.082Z,60.09
2019-03-03T15:14:41.785Z,61.24
2019-03-03T15:17:10.498Z,60.11
2019-03-03T15:19:39.258Z,60.50
2019-03-03T15:22:08.082Z,60.99
2019-03-03T15:24:36.740Z,62.52
2019-03-03T15:27:05.560Z,62.99
2019-03-03T15:29:34.414Z,63.18
2019-03-03T15:32:03.082Z,62.04
2019-03-03T15:34:31.803Z,61.64
2019-03-03T15:39:55.449Z,61.46
2019-03-03T15:42:24.255Z,62.37
2019-03-03T15:44:52.982Z,61.61
2019-03-03T15:47:21.696Z,62.11
2019-03-03T15:49:50.456Z,62.32
2019-03-03T15:52:19.308Z,62.86
2019-03-03T15:54:47.967Z,62.71
2019-03-03T15:57:16.615Z,63.12
2019-03-03T15:59:45.401Z,63.70
2019-03-03T16:05:03.401Z,64.21
2019-03-03T16:07:32.240Z,64.85
2019-03-03T16:10:00.900Z,63.94
2019-03-03T16:12:29.552Z,63.87
2019-03-03T16:14:58.296Z,64.86
2019-03-03T16:17:27.119Z,64.54
2019-03-03T16:19:55.937Z,64.79
2019-03-03T16:22:24.626Z,65.05
2019-03-03T16:25:12.452Z,64.74
2019-03-03T16:27:41.266Z,64.50
2019-03-03T16:30:29.225Z,65.03
2019-03-03T16:33:20.617Z,65.47
2019-03-03T16:35:47.858Z,66.04
2019-03-03T16:38:16.646Z,65.48
2019-03-03T16:40:46.139Z,65.71
2019-03-03T16:43:15.826Z,66.41
2019-03-03T16:45:44.556Z,66.38
2019-03-03T16:48:20.128Z,66.35
2019-03-03T16:50:48.773Z,66.25
2019-03-03T16:53:17.526Z,66.46
2019-03-03T16:55:46.386Z,66.33
2019-03-03T16:58:34.129Z,66.42
2019-03-03T17:01:02.936Z,66.92
2019-03-03T17:03:50.840Z,66.93
2019-03-03T17:06:19.623Z,66.51
2019-03-03T17:08:48.400Z,66.57
2019-03-03T17:11:17.232Z,66.39
2019-03-03T17:13:46.057Z,66.52
2019-03-03T17:16:14.850Z,66.62
2019-03-03T17:19:02.839Z,66.99
2019-03-03T17:21:31.540Z,67.61
2019-03-03T17:24:19.557Z,68.18
2019-03-03T17:26:48.959Z,67.37
2019-03-03T17:29:17.722Z,68.58
2019-03-03T17:31:46.347Z,68.08
2019-03-03T17:34:34.289Z,68.10
2019-03-03T17:37:03.163Z,68.28
2019-03-03T17:42:38.939Z,68.19
2019-03-03T17:45:27.168Z,67.81
2019-03-03T17:48:35.700Z,67.97
2019-03-03T17:51:23.773Z,68.01
2019-03-03T17:53:52.716Z,67.99
2019-03-03T17:56:21.534Z,68.19
2019-03-03T17:58:50.384Z,67.72
2019-03-03T18:01:38.358Z,67.88
2019-03-03T18:04:07.304Z,67.70
2019-03-03T18:06:39.003Z,67.69
2019-03-03T18:09:46.607Z,67.86
2019-03-03T18:20:51.775Z,68.19
2019-03-03T18:23:20.678Z,68.60
2019-03-03T18:26:08.537Z,68.45
2019-03-03T18:28:37.365Z,68.57
2019-03-03T18:31:06.010Z,68.64
2019-03-03T18:33:34.738Z,68.83
2019-03-03T18:36:22.868Z,69.18
2019-03-03T18:38:51.722Z,68.74
2019-03-03T18:41:20.487Z,69.57
2019-03-03T18:43:49.469Z,68.89
2019-03-03T18:46:18.312Z,69.02
2019-03-03T18:51:40.390Z,69.43
2019-03-03T18:54:09.634Z,69.51
2019-03-03T18:56:38.363Z,69.50
2019-03-03T18:59:26.499Z,70.11
2019-03-03T19:01:55.412Z,69.92
2019-03-03T19:04:24.393Z,70.60
2019-03-03T19:06:53.318Z,70.99
2019-03-03T19:10:01.980Z,71.35
2019-03-03T19:12:30.847Z,71.27
2019-03-03T19:15:18.979Z,71.11
2019-03-03T19:17:47.949Z,71.35
2019-03-03T19:20:56.470Z,70.87
2019-03-03T19:23:25.247Z,70.90
2019-03-03T19:25:54.198Z,70.97
2019-03-03T19:30:57.165Z,70.64
2019-03-03T19:34:05.848Z,70.85
2019-03-03T19:36:37.040Z,70.62
2019-03-03T19:39:45.720Z,70.08
2019-03-03T19:46:02.817Z,70.17
2019-03-03T19:48:31.864Z,70.13
2019-03-03T19:51:00.795Z,70.50
2019-03-03T19:53:29.654Z,70.28
2019-03-03T19:55:58.675Z,70.75
2019-03-03T19:58:27.735Z,70.59
2019-03-03T20:00:56.767Z,70.31
2019-03-03T20:03:25.658Z,70.87
2019-03-03T20:05:54.542Z,70.67
2019-03-03T20:14:34.615Z,71.96
2019-03-03T20:20:02.919Z,73.52
2019-03-03T20:22:31.923Z,73.77
2019-03-03T20:25:00.783Z,74.15
2019-03-03T20:27:29.828Z,74.07
2019-03-03T20:30:37.155Z,73.48
2019-03-03T20:33:25.383Z,73.90
2019-03-03T20:35:54.503Z,73.58
2019-03-03T20:38:42.907Z,73.50
2019-03-03T20:47:01.789Z,73.36
2019-03-03T20:49:50.035Z,73.43
2019-03-03T20:55:53.613Z,72.77
2019-03-03T20:58:22.462Z,72.91
2019-03-03T21:01:10.492Z,73.00
2019-03-03T21:03:39.593Z,72.75
2019-03-03T21:06:27.761Z,72.62
2019-03-03T21:09:15.957Z,72.39
2019-03-03T21:14:52.062Z,72.28
2019-03-03T21:17:20.874Z,72.33
2019-03-03T21:19:49.843Z,72.72
2019-03-03T21:22:37.916Z,73.08
2019-03-03T21:25:46.412Z,72.74
2019-03-03T21:28:15.265Z,72.42
2019-03-03T21:30:44.146Z,72.27
2019-03-03T21:36:19.839Z,72.08
2019-03-03T21:39:07.627Z,72.11
2019-03-03T21:41:36.331Z,71.26
2019-03-03T21:44:24.317Z,71.44
2019-03-03T21:49:28.613Z,71.20
2019-03-03T21:51:57.269Z,71.59
2019-03-03T21:54:26.028Z,71.60
2019-03-03T21:56:54.716Z,71.49
2019-03-03T21:59:23.477Z,71.70
2019-03-03T22:01:52.219Z,71.94
2019-03-03T22:04:20.911Z,70.92
2019-03-03T22:07:08.851Z,71.50
2019-03-03T22:09:37.581Z,71.76
2019-03-03T22:14:59.415Z,71.10
2019-03-03T22:17:28.059Z,70.61
2019-03-03T22:20:16.053Z,70.95
2019-03-03T22:22:44.816Z,71.02
2019-03-03T22:25:28.039Z,71.45
2019-03-03T22:27:56.853Z,70.53
2019-03-03T22:31:05.292Z,69.91
2019-03-03T22:39:22.002Z,68.58
2019-03-03T22:41:50.590Z,68.07
2019-03-03T22:44:19.335Z,68.19
2019-03-03T22:46:48.096Z,67.77
2019-03-03T22:49:16.906Z,68.06
2019-03-03T22:51:45.700Z,67.62
2019-03-03T22:57:02.107Z,67.13
2019-03-03T22:59:30.872Z,67.52
2019-03-03T23:01:59.599Z,67.37
2019-03-03T23:05:08.142Z,66.67
2019-03-03T23:08:16.589Z,66.96
2019-03-03T23:11:23.744Z,67.14
2019-03-03T23:14:30.953Z,67.09
2019-03-03T23:17:39.422Z,67.20
2019-03-03T23:20:48.043Z,67.15
2019-03-03T23:23:56.551Z,67.32
2019-03-03T23:26:25.286Z,68.27
2019-03-03T23:28:53.995Z,68.30
2019-03-03T23:34:12.025Z,68.77
2019-03-03T23:36:40.929Z,68.81
2019-03-03T23:39:28.943Z,68.20
2019-03-03T23:42:16.774Z,68.73
2019-03-03T23:45:04.761Z,69.43
2019-03-03T23:47:33.458Z,69.96
2019-03-03T23:50:02.097Z,69.84
2019-03-03T23:52:30.849Z,70.63
2019-03-03T23:54:59.579Z,70.67
2019-03-03T23:57:47.544Z,69.96
